Time;durP1;ratioP1;P1;durP2;ratioP2;P2;SDS_P1;SDS_P2;PMS_P1;PMS_P2;Temp;Humidity;BMP_temperature;BMP_pressure;BME280_temperature;BME280_humidity;BME280_pressure;Samples;Min_cycle;Max_cycle;Signal;HPM_P1;HPM_P2
2022/09/15 00:02:16;;;;;;;7.40;1.40;;;14.80;99.90;;;13.74;96.54;99698.88;5090991;28;20112;-77
2022/09/15 00:04:42;;;;;;;6.80;1.33;;;14.70;99.90;;;13.73;96.30;99705.09;5073567;28;20052;-77
2022/09/15 00:07:07;;;;;;;9.32;1.52;;;14.70;99.90;;;13.72;96.19;99694.66;5058908;28;20025;-77
2022/09/15 00:09:34;;;;;;;10.60;1.70;;;14.70;99.90;;;13.70;96.16;99686.00;5062176;28;20527;-76
2022/09/15 00:12:00;;;;;;;8.23;1.63;;;14.70;99.90;;;13.71;96.21;99699.13;5069187;28;20025;-76
2022/09/15 00:14:28;;;;;;;5.47;1.23;;;14.70;99.90;;;13.70;96.30;99694.78;5056420;28;20025;-77
2022/09/15 00:16:54;;;;;;;7.80;1.10;;;14.70;99.90;;;13.72;96.00;99689.38;5074068;28;20047;-76
2022/09/15 00:19:20;;;;;;;10.68;1.80;;;14.70;99.90;;;13.73;95.95;99683.94;5074813;28;20028;-77
2022/09/15 00:21:46;;;;;;;6.43;1.08;;;14.70;99.90;;;13.72;95.81;99682.28;5091514;28;20519;-77
2022/09/15 00:24:11;;;;;;;9.20;1.27;;;14.70;99.90;;;13.71;96.02;99682.38;5089418;28;20047;-77
2022/09/15 00:26:37;;;;;;;6.82;1.30;;;14.70;99.90;;;13.73;96.08;99688.41;5056682;28;20039;-77
2022/09/15 00:29:06;;;;;;;9.07;1.33;;;14.70;99.90;;;13.74;96.10;99682.16;5091434;28;20451;-77
2022/09/15 00:31:32;;;;;;;7.35;1.52;;;14.70;99.90;;;13.76;96.33;99688.19;5060006;28;20037;-78
2022/09/15 00:34:01;;;;;;;5.03;1.30;;;14.80;99.90;;;13.80;96.43;99691.41;5072422;28;20053;-77
2022/09/15 00:36:28;;;;;;;11.20;1.40;;;14.80;99.90;;;13.80;96.88;99687.00;5073158;28;20485;-77
2022/09/15 00:38:55;;;;;;;7.10;1.27;;;14.80;99.90;;;13.84;96.55;99682.28;5072940;28;20078;-77
2022/09/15 00:41:23;;;;;;;7.53;1.35;;;14.80;99.90;;;13.87;96.24;99685.53;5089005;28;20055;-77
2022/09/15 00:44:00;;;;;;;8.40;1.63;;;14.80;99.90;;;13.90;96.88;99687.94;5044711;28;20107;-77
2022/09/15 00:46:37;;;;;;;8.60;1.38;;;14.90;99.90;;;13.93;97.21;99692.16;5060325;28;20064;-77
2022/09/15 00:49:13;;;;;;;4.05;1.30;;;14.90;99.90;;;13.93;96.99;99695.66;5091189;28;20519;-77
2022/09/15 00:52:27;;;;;;;5.97;1.17;;;14.80;99.90;;;13.94;97.19;99691.22;5058477;28;20032;-77
2022/09/15 00:55:24;;;;;;;8.38;1.40;;;14.90;99.90;;;13.96;97.07;99681.34;5018016;28;20048;-77
2022/09/15 00:58:10;;;;;;;5.60;1.13;;;14.90;99.90;;;13.98;97.32;99689.19;5060662;28;20040;-77
2022/09/15 01:00:43;;;;;;;8.85;1.40;;;14.90;99.90;;;13.95;97.52;99677.88;5087881;28;20037;-76
2022/09/15 01:03:09;;;;;;;8.75;1.48;;;14.90;99.90;;;13.99;96.85;99680.25;5072943;28;20036;-77
2022/09/15 01:05:41;;;;;;;9.95;1.40;;;15.00;99.90;;;14.03;96.35;99676.41;5089120;28;20025;-77
2022/09/15 01:08:45;;;;;;;9.27;1.13;;;15.00;99.90;;;14.06;96.05;99679.69;5075375;28;20041;-77
2022/09/15 01:11:10;;;;;;;2.42;1.20;;;15.00;99.90;;;14.07;95.77;99680.50;5081263;28;20075;-77
2022/09/15 01:13:39;;;;;;;8.98;1.27;;;15.00;99.90;;;14.08;95.61;99687.47;5092665;28;20107;-77
2022/09/15 01:16:44;;;;;;;4.63;0.82;;;15.00;99.90;;;14.07;95.56;99684.00;5045683;28;20017;-76
2022/09/15 01:19:18;;;;;;;7.05;1.23;;;15.00;99.90;;;14.06;95.47;99671.75;5060160;28;20070;-77
2022/09/15 01:22:14;;;;;;;8.20;1.55;;;15.10;99.90;;;14.09;95.26;99675.94;5061855;28;20098;-77
2022/09/15 01:25:10;;;;;;;8.80;1.23;;;15.10;99.90;;;14.10;95.70;99680.25;5010978;28;20040;-77
2022/09/15 01:28:15;;;;;;;10.40;1.50;;;15.00;99.90;;;14.09;95.74;99674.13;5063796;28;20025;-77
2022/09/15 01:31:19;;;;;;;7.28;1.45;;;15.10;99.90;;;14.11;95.29;99671.38;5063739;28;20303;-77
2022/09/15 01:33:58;;;;;;;6.90;1.15;;;15.10;99.90;;;14.09;95.18;99668.84;5060837;28;20048;-77
2022/09/15 01:36:41;;;;;;;8.05;1.50;;;15.10;99.90;;;14.10;95.13;99669.69;5075731;28;20078;-77
2022/09/15 01:39:19;;;;;;;11.88;1.70;;;15.00;99.90;;;14.10;95.37;99667.91;5090815;28;20393;-76
2022/09/15 01:41:55;;;;;;;7.63;1.17;;;15.10;99.90;;;14.12;94.96;99673.91;5059630;28;20060;-76
2022/09/15 01:44:32;;;;;;;7.93;1.00;;;15.10;99.90;;;14.11;95.14;99668.72;5093520;28;20098;-77
2022/09/15 01:47:01;;;;;;;;;;;15.10;99.90;;;14.04;95.44;99660.44;5047461;28;20435;-77
2022/09/15 01:49:33;;;;;;;11.40;1.63;;;15.00;99.90;;;14.05;95.51;99651.50;5061866;28;19908;-79
2022/09/15 01:51:59;;;;;;;10.45;1.70;;;15.00;99.90;;;14.03;95.91;99653.44;5061506;28;20032;-77
2022/09/15 01:54:47;;;;;;;8.45;1.67;;;15.00;99.90;;;14.04;95.83;99660.44;5060277;28;20040;-77
2022/09/15 01:57:20;;;;;;;7.70;1.52;;;15.00;99.90;;;14.05;95.84;99662.09;5051217;28;20021;-77
2022/09/15 01:59:50;;;;;;;6.38;1.33;;;15.00;99.90;;;14.03;96.01;99647.31;5082329;28;20032;-77
2022/09/15 02:02:23;;;;;;;6.93;1.67;;;15.00;99.90;;;14.01;96.35;99649.22;5092059;28;20447;-76
2022/09/15 02:05:00;;;;;;;5.28;1.13;;;15.00;99.90;;;13.99;96.33;99654.63;5068195;28;20033;-76
2022/09/15 02:07:37;;;;;;;;;;;15.00;99.90;;;13.90;97.22;99656.19;5076342;28;20025;-77
2022/09/15 02:10:40;;;;;;;8.27;1.50;;;14.90;99.90;;;13.88;97.87;99652.81;5061948;28;19920;-77
2022/09/15 02:13:06;;;;;;;6.78;1.35;;;14.90;99.90;;;13.86;97.92;99661.84;5062230;28;20029;-77
2022/09/15 02:15:46;;;;;;;7.47;1.60;;;14.90;99.90;;;13.83;98.17;99655.00;5061677;28;20033;-77
2022/09/15 02:18:18;;;;;;;8.48;1.73;;;14.80;99.90;;;13.83;98.20;99662.09;5062953;28;20024;-77
2022/09/15 02:21:02;;;;;;;7.57;1.40;;;14.90;99.90;;;13.82;98.64;99657.75;5076353;28;20971;-76
2022/09/15 02:23:34;;;;;;;3.67;1.50;;;14.80;99.90;;;13.80;98.62;99659.66;5044950;28;20029;-76
2022/09/15 02:26:13;;;;;;;9.77;1.60;;;14.80;99.90;;;13.80;98.47;99657.88;5074999;28;20036;-77
2022/09/15 02:28:43;;;;;;;7.85;1.40;;;14.80;99.90;;;13.79;98.51;99655.34;5088547;28;20536;-77
2022/09/15 02:31:13;;;;;;;6.32;1.33;;;14.80;99.90;;;13.78;98.94;99656.28;5092935;28;20044;-77
2022/09/15 02:33:46;;;;;;;6.40;1.52;;;14.80;99.90;;;13.77;98.78;99651.97;5075239;28;20435;-77
2022/09/15 02:36:14;;;;;;;9.00;1.65;;;14.80;99.90;;;13.74;99.17;99651.25;5090096;28;20028;-77
2022/09/15 02:38:48;;;;;;;7.25;1.40;;;14.80;99.90;;;13.74;99.23;99651.25;5092743;28;20556;-77
2022/09/15 02:41:14;;;;;;;7.43;1.33;;;14.80;99.90;;;13.72;99.12;99639.94;5062796;28;20033;-76
2022/09/15 02:43:48;;;;;;;8.60;1.50;;;14.80;99.90;;;13.73;99.47;99644.25;5071073;28;20104;-77
2022/09/15 02:46:17;;;;;;;7.93;1.58;;;14.70;99.90;;;13.68;99.57;99646.41;5062161;28;20040;-77
2022/09/15 02:48:43;;;;;;;11.73;1.73;;;14.70;99.90;;;13.68;99.63;99641.13;5045659;28;20033;-76
2022/09/15 02:51:09;;;;;;;10.63;1.40;;;14.70;99.90;;;13.68;99.41;99641.13;5060319;28;20036;-77
2022/09/15 02:53:35;;;;;;;7.78;1.40;;;14.70;99.90;;;13.63;99.75;99639.78;5076751;28;20112;-77
2022/09/15 02:56:05;;;;;;;6.47;1.35;;;14.70;99.90;;;13.62;99.82;99631.03;5075309;28;20036;-77
2022/09/15 02:58:32;;;;;;;5.82;1.58;;;14.70;99.90;;;13.62;99.70;99636.31;5060883;28;20027;-77
2022/09/15 03:01:03;;;;;;;5.75;1.35;;;14.70;99.90;;;13.61;100.00;99626.72;5062497;28;20039;-77
2022/09/15 03:03:32;;;;;;;4.53;1.38;;;14.70;99.90;;;13.60;100.00;99627.66;5058494;28;20033;-77
2022/09/15 03:06:15;;;;;;;7.75;1.35;;;14.70;99.90;;;13.60;100.00;99632.94;5075367;28;20049;-77
2022/09/15 03:08:53;;;;;;;6.63;1.45;;;14.70;99.90;;;13.57;100.00;99622.59;5058056;28;20028;-77
2022/09/15 03:11:21;;;;;;;10.40;1.95;;;14.60;99.90;;;13.53;100.00;99637.84;5069934;28;20036;-77
2022/09/15 03:13:51;;;;;;;5.72;1.80;;;14.60;99.90;;;13.51;100.00;99629.19;5060057;28;20021;-77
2022/09/15 03:16:17;;;;;;;7.97;1.80;;;;;;;13.48;100.00;99625.97;5059823;28;20086;-77
2022/09/15 03:18:43;;;;;;;7.43;1.88;;;14.60;99.90;;;13.47;100.00;99629.56;5060308;28;20474;-76
2022/09/15 03:21:12;;;;;;;7.20;1.75;;;14.50;99.90;;;13.44;100.00;99627.16;5058142;28;20116;-77
2022/09/15 03:23:40;;;;;;;7.85;2.03;;;14.50;99.90;;;13.40;100.00;99626.53;5088380;28;20040;-77
2022/09/15 03:26:14;;;;;;;7.07;1.80;;;14.50;99.90;;;13.34;100.00;99627.81;5090044;28;20021;-77
2022/09/15 03:28:40;;;;;;;8.68;1.95;;;14.40;99.90;;;13.29;100.00;99622.06;5077573;28;20478;-77
2022/09/15 03:31:08;;;;;;;10.27;2.03;;;14.40;99.90;;;13.24;100.00;99620.66;5072738;28;20439;-76
2022/09/15 03:33:33;;;;;;;13.63;1.98;;;14.30;99.90;;;13.20;100.00;99624.53;5072314;28;20040;-77
2022/09/15 03:36:00;;;;;;;9.25;2.08;;;14.30;99.90;;;13.16;100.00;99623.06;5061520;28;20053;-77
2022/09/15 03:38:26;;;;;;;9.68;2.47;;;14.20;99.90;;;13.13;100.00;99621.47;5060244;28;20031;-76
2022/09/15 03:41:05;;;;;;;6.70;2.05;;;14.20;99.90;;;13.09;100.00;99627.97;5058621;28;20020;-77
2022/09/15 03:43:31;;;;;;;11.35;2.88;;;14.20;99.90;;;13.05;100.00;99632.63;5074764;28;20038;-77
2022/09/15 03:45:57;;;;;;;10.10;2.60;;;14.20;99.90;;;13.01;100.00;99622.41;5089762;28;20450;-76
2022/09/15 03:48:25;;;;;;;9.38;2.67;;;14.10;99.90;;;12.99;100.00;99626.97;5060091;28;20021;-77
2022/09/15 03:50:51;;;;;;;9.23;2.50;;;14.10;99.90;;;12.95;100.00;99621.06;5088575;28;20032;-77
2022/09/15 03:53:18;;;;;;;9.80;2.30;;;14.10;99.90;;;12.97;100.00;99618.31;5059582;28;20033;-77
2022/09/15 03:55:44;;;;;;;14.25;2.65;;;14.10;99.90;;;12.97;100.00;99626.25;5066926;28;20116;-77
2022/09/15 03:58:12;;;;;;;8.90;2.22;;;14.10;99.90;;;12.97;100.00;99618.31;5057943;28;20029;-77
2022/09/15 04:00:39;;;;;;;8.68;2.67;;;14.10;99.90;;;12.99;100.00;99629.59;5070448;28;20055;-76
2022/09/15 04:03:05;;;;;;;7.95;2.80;;;14.00;99.90;;;13.01;100.00;99635.63;5058740;28;20123;-76
2022/09/15 04:05:31;;;;;;;8.60;2.50;;;14.00;99.90;;;13.03;100.00;99641.63;5092119;28;20455;-77
2022/09/15 04:07:57;;;;;;;8.20;2.67;;;14.10;99.90;;;13.07;100.00;99643.94;5088748;28;20537;-76
2022/09/15 04:10:23;;;;;;;7.30;2.90;;;14.10;99.90;;;13.13;100.00;99647.91;5056394;28;20060;-76
2022/09/15 04:12:53;;;;;;;10.82;2.53;;;14.10;99.90;;;13.14;100.00;99644.31;5089057;28;20468;-76
2022/09/15 04:15:19;;;;;;;9.48;2.65;;;14.20;99.90;;;13.17;100.00;99641.44;5072888;28;20021;-76
2022/09/15 04:17:46;;;;;;;8.63;2.45;;;14.20;99.90;;;13.20;100.00;99643.03;5050527;28;20362;-77
2022/09/15 04:20:12;;;;;;;10.43;2.28;;;14.20;99.90;;;13.20;100.00;99641.22;5072400;28;20028;-77
2022/09/15 04:22:38;;;;;;;12.13;2.15;;;14.20;99.90;;;13.20;100.00;99638.59;5072868;28;20108;-76
2022/09/15 04:25:05;;;;;;;8.98;2.22;;;14.20;99.90;;;13.16;100.00;99644.22;5074075;28;20482;-76
2022/09/15 04:27:33;;;;;;;12.60;2.35;;;14.20;99.90;;;13.12;100.00;99633.03;5077115;28;20032;-76
2022/09/15 04:29:59;;;;;;;7.32;2.35;;;14.20;99.90;;;13.09;100.00;99646.47;5080062;28;20024;-76
2022/09/15 04:32:28;;;;;;;8.25;1.95;;;14.10;99.90;;;13.03;100.00;99641.63;5057253;28;20029;-76
2022/09/15 04:34:54;;;;;;;8.07;1.98;;;14.10;99.90;;;12.95;100.00;99638.72;5069767;22;20020;-76
2022/09/15 04:37:21;;;;;;;6.80;2.00;;;14.10;99.90;;;12.89;100.00;99638.22;5063871;28;20041;-76
2022/09/15 04:39:47;;;;;;;5.63;2.00;;;14.10;99.90;;;12.88;100.00;99639.16;5050227;28;20660;-76
2022/09/15 04:42:13;;;;;;;11.73;2.30;;;14.00;99.90;;;12.84;100.00;99642.16;5052391;28;20036;-76
2022/09/15 04:44:39;;;;;;;6.60;2.08;;;14.00;99.90;;;12.82;100.00;99644.06;5071199;28;20074;-76
2022/09/15 04:47:06;;;;;;;7.78;2.05;;;14.00;99.90;;;12.79;100.00;99642.50;5071350;28;20032;-76
2022/09/15 04:49:33;;;;;;;8.98;2.45;;;14.00;99.90;;;12.90;100.00;99636.41;5054714;28;20060;-76
2022/09/15 04:51:59;;;;;;;16.02;3.40;;;14.00;99.90;;;12.96;100.00;99633.31;5053377;28;20128;-76
2022/09/15 04:54:27;;;;;;;11.10;3.05;;;14.00;99.90;;;13.00;100.00;99633.91;5057641;28;20028;-76
2022/09/15 04:56:53;;;;;;;8.07;3.38;;;14.00;99.90;;;13.03;100.00;99628.44;5039069;28;20036;-76
2022/09/15 04:59:19;;;;;;;13.10;3.60;;;14.10;99.90;;;13.05;100.00;99634.44;5055244;28;20028;-77
2022/09/15 05:01:45;;;;;;;6.30;2.42;;;14.10;99.90;;;13.04;100.00;99636.22;5054471;28;20397;-77
2022/09/15 05:04:11;;;;;;;11.68;2.42;;;14.10;99.90;;;13.06;100.00;99636.13;5054319;28;20078;-77
2022/09/15 05:06:37;;;;;;;9.10;2.78;;;14.10;99.90;;;13.08;100.00;99627.09;5054006;28;20114;-75
2022/09/15 05:09:06;;;;;;;7.88;3.13;;;14.10;99.90;;;13.11;100.00;99631.34;5054455;28;20036;-77
2022/09/15 05:11:34;;;;;;;14.88;3.20;;;14.10;99.90;;;13.11;100.00;99615.50;5052792;28;20489;-77
2022/09/15 05:14:00;;;;;;;11.02;3.45;;;14.10;99.90;;;13.14;100.00;99617.88;5061234;28;20083;-77
2022/09/15 05:16:28;;;;;;;5.35;2.40;;;14.20;99.90;;;13.18;100.00;99606.13;5052415;28;20485;-77
2022/09/15 05:19:01;;;;;;;8.10;2.80;;;14.20;99.90;;;13.26;100.00;99609.06;5052927;28;20544;-77
2022/09/15 05:21:27;;;;;;;11.30;2.53;;;14.20;99.90;;;13.37;100.00;99612.69;5037306;28;20077;-77
2022/09/15 05:23:54;;;;;;;9.95;2.83;;;14.20;99.90;;;13.47;100.00;99611.03;5051873;28;20078;-77
2022/09/15 05:26:28;;;;;;;6.78;2.40;;;14.30;99.90;;;13.57;100.00;99621.78;5054274;28;20115;-77
2022/09/15 05:28:55;;;;;;;11.70;2.50;;;14.40;99.90;;;13.61;100.00;99624.06;5037959;28;20024;-77
2022/09/15 05:31:29;;;;;;;11.15;3.03;;;14.40;99.90;;;13.65;100.00;99617.56;5054315;28;20028;-77
2022/09/15 05:33:55;;;;;;;7.40;2.45;;;14.50;99.90;;;13.66;100.00;99616.59;5052734;28;20024;-77
2022/09/15 05:36:24;;;;;;;8.35;2.67;;;14.50;99.90;;;13.69;100.00;99623.44;5037155;28;20400;-77
2022/09/15 05:38:51;;;;;;;7.88;2.75;;;14.60;99.90;;;13.72;100.00;99617.94;5053322;28;20035;-77
2022/09/15 05:41:18;;;;;;;9.00;2.90;;;14.60;99.90;;;13.82;100.00;99610.13;5056554;28;20063;-77
2022/09/15 05:43:46;;;;;;;10.95;3.13;;;14.60;99.90;;;13.85;100.00;99601.97;5060439;28;20056;-77
2022/09/15 05:46:14;;;;;;;11.45;2.67;;;14.70;99.90;;;13.86;100.00;99603.63;5054356;28;20100;-78
2022/09/15 05:48:39;;;;;;;13.02;2.88;;;14.70;99.90;;;14.05;100.00;99603.88;5053423;28;20032;-77
2022/09/15 05:51:06;;;;;;;10.75;2.75;;;14.80;99.90;;;14.91;100.00;99620.81;5071959;28;20047;-76
2022/09/15 05:53:33;;;;;;;9.15;2.33;;;15.10;99.90;;;15.72;95.09;99613.19;5046864;28;20111;-78
2022/09/15 05:56:06;;;;;;;4.90;2.20;;;15.30;99.90;;;15.56;92.70;99612.78;5054075;28;20025;-78
2022/09/15 05:58:32;;;;;;;8.15;2.25;;;15.60;99.90;;;15.43;92.53;99610.31;5035447;28;20032;-77
2022/09/15 06:01:10;;;;;;;9.10;2.20;;;15.70;99.90;;;15.55;91.59;99609.28;5053062;28;20028;-77
2022/09/15 06:03:36;;;;;;;7.80;2.30;;;15.80;99.90;;;15.60;91.28;99611.56;5031728;28;20044;-78
2022/09/15 06:06:04;;;;;;;8.80;2.30;;;16.00;99.90;;;15.81;90.71;99619.53;5053616;28;20036;-77
2022/09/15 06:08:40;;;;;;;11.70;2.75;;;16.10;99.90;;;15.85;90.14;99618.25;5053597;28;20398;-78
2022/09/15 06:11:09;;;;;;;;;;;16.10;99.90;;;16.55;87.02;99631.69;5054244;28;20107;-77
2022/09/15 06:13:35;;;;;;;17.55;3.30;;;16.50;99.90;;;17.15;85.47;99631.63;5050709;28;20402;-78
2022/09/15 06:16:10;;;;;;;8.43;2.50;;;16.80;99.90;;;17.22;82.02;99622.09;5056778;28;20393;-77
2022/09/15 06:18:37;;;;;;;11.48;2.78;;;17.00;99.90;;;17.00;81.92;99624.06;5048591;28;20036;-76
2022/09/15 06:21:16;;;;;;;10.32;2.20;;;17.10;99.90;;;17.65;80.21;99628.75;5053817;28;20033;-77
2022/09/15 06:23:42;;;;;;;9.40;2.03;;;17.20;99.90;;;17.53;79.97;99625.41;5051439;28;20463;-77
2022/09/15 06:26:26;;;;;;;10.45;2.22;;;17.30;99.90;;;17.51;80.62;99624.72;5034292;28;20381;-77
2022/09/15 06:28:57;;;;;;;7.20;2.03;;;17.60;99.90;;;19.35;74.97;99640.78;5038972;28;20032;-77
2022/09/15 06:31:26;;;;;;;9.73;2.17;;;18.00;99.90;;;19.15;72.99;99640.06;5035272;28;20037;-77
2022/09/15 06:33:54;;;;;;;13.43;2.28;;;18.20;99.90;;;19.03;72.09;99626.16;5054812;28;20374;-77
2022/09/15 06:36:26;;;;;;;14.25;2.20;;;18.30;99.90;;;18.78;73.05;99637.56;5049693;28;20064;-77
2022/09/15 06:38:52;;;;;;;10.65;1.73;;;18.30;99.90;;;18.94;73.29;99640.41;5053222;28;20066;-77
2022/09/15 06:41:18;;;;;;;8.30;1.30;;;18.60;99.90;;;20.92;68.11;99639.75;5052583;28;20028;-77
2022/09/15 06:43:51;;;;;;;10.52;1.90;;;19.60;99.90;;;24.49;57.82;99640.91;5070358;28;20488;-77
2022/09/15 06:46:24;;;;;;;4.43;1.30;;;20.80;99.90;;;22.77;58.19;99620.13;5036671;28;20056;-77
2022/09/15 06:48:50;;;;;;;8.45;1.50;;;21.20;99.90;;;21.91;60.70;99634.19;5038307;28;20028;-77
2022/09/15 06:51:19;;;;;;;6.65;1.48;;;21.30;99.90;;;24.22;56.72;99647.75;5035863;28;20032;-77
2022/09/15 06:53:45;;;;;;;6.38;1.58;;;22.10;99.90;;;26.98;51.05;99654.19;5048789;28;20032;-77
2022/09/15 06:56:19;;;;;;;6.63;1.60;;;23.40;99.90;;;27.58;48.19;99655.09;5042557;28;20132;-77
2022/09/15 06:58:49;;;;;;;7.90;1.35;;;25.00;99.90;;;30.29;44.05;99656.78;5046164;28;20028;-77
2022/09/15 07:01:29;;;;;;;37.75;2.00;;;25.70;99.90;;;26.29;48.72;99642.47;5034561;28;20625;-76
2022/09/15 07:04:02;;;;;;;10.57;1.52;;;25.30;99.90;;;25.27;51.84;99648.34;5033995;28;20099;-77
2022/09/15 07:06:33;;;;;;;5.65;1.30;;;25.10;99.90;;;27.81;47.37;99672.75;5045770;28;20052;-77
2022/09/15 07:09:03;;;;;;;10.45;1.75;;;25.30;99.90;;;26.18;49.34;99659.25;5034779;28;20063;-77
2022/09/15 07:11:32;;;;;;;10.38;1.35;;;25.10;99.90;;;25.85;50.05;99676.00;5031573;28;20040;-77
2022/09/15 07:13:59;;;;;;;6.38;1.45;;;24.80;99.90;;;25.14;51.39;99674.13;5033863;28;20024;-77
2022/09/15 07:16:25;;;;;;;6.53;1.27;;;24.90;99.90;;;26.87;48.55;99684.47;5045058;28;20032;-77
2022/09/15 07:19:02;;;;;;;6.47;1.55;;;25.40;99.90;;;26.44;48.35;99673.91;5037143;28;20020;-77
2022/09/15 07:21:28;;;;;;;7.10;1.50;;;25.90;99.90;;;28.05;46.63;99694.81;5030585;28;20039;-76
2022/09/15 07:23:56;;;;;;;10.95;1.73;;;26.60;99.10;;;27.05;47.83;99686.63;5033235;28;20036;-77
2022/09/15 07:26:30;;;;;;;10.23;1.33;;;26.50;98.30;;;25.46;49.81;99677.34;5035194;28;20028;-77
2022/09/15 07:29:03;;;;;;;7.45;1.38;;;25.70;98.90;;;24.34;52.46;99680.38;5035402;28;20039;-77
2022/09/15 07:31:33;;;;;;;4.20;1.20;;;25.10;99.80;;;24.00;53.77;99680.97;5051320;28;20037;-77
2022/09/15 07:34:01;;;;;;;7.05;1.42;;;24.60;99.90;;;24.02;53.27;99677.06;5052067;28;20028;-77
2022/09/15 07:36:27;;;;;;;8.27;1.60;;;24.10;99.90;;;23.34;54.90;99681.50;5051631;28;20032;-77
2022/09/15 07:38:53;;;;;;;9.23;1.60;;;23.70;99.90;;;22.62;56.53;99674.53;5050672;28;20107;-77
2022/09/15 07:41:23;;;;;;;8.90;1.40;;;23.20;99.90;;;22.20;56.66;99674.84;5050959;28;20082;-77
2022/09/15 07:43:52;;;;;;;9.93;1.50;;;22.80;99.90;;;21.89;58.01;99678.25;5036175;28;20024;-77
2022/09/15 07:46:20;;;;;;;10.38;1.27;;;22.50;99.90;;;21.45;58.79;99674.13;5047893;28;20581;-76
2022/09/15 07:48:49;;;;;;;5.63;1.33;;;22.20;99.90;;;21.53;58.82;99680.47;5033372;28;20036;-78
2022/09/15 07:51:16;;;;;;;9.23;1.20;;;22.20;99.90;;;22.30;57.59;99681.69;5028969;28;20037;-77
2022/09/15 07:53:45;;;;;;;9.88;1.60;;;22.80;99.90;;;24.05;53.26;99681.22;5045822;28;20509;-76
2022/09/15 07:56:12;;;;;;;6.97;1.40;;;24.10;99.90;;;25.34;49.92;99689.69;5045385;28;20045;-77
2022/09/15 07:58:38;;;;;;;4.35;1.00;;;25.00;98.30;;;25.18;48.98;99679.94;5046759;28;20040;-77
2022/09/15 08:01:15;;;;;;;6.65;1.33;;;25.70;98.30;;;26.37;47.25;99690.91;5050472;28;20067;-77
2022/09/15 08:03:47;;;;;;;8.80;1.42;;;26.50;97.30;;;26.08;47.49;99689.25;5048280;28;20083;-77
2022/09/15 08:06:16;;;;;;;9.93;1.60;;;26.50;96.50;;;25.05;49.69;99679.81;5048995;28;20048;-77
2022/09/15 08:08:49;;;;;;;8.68;1.65;;;25.80;96.80;;;23.79;51.78;99695.94;5032124;28;20066;-77
2022/09/15 08:11:19;;;;;;;14.15;1.30;;;24.20;97.60;;;21.68;55.60;99687.69;5066794;28;20020;-77
2022/09/15 08:13:51;;;;;;;10.27;1.27;;;23.10;99.60;;;21.11;57.27;99687.63;5048409;28;20097;-76
2022/09/15 08:16:22;;;;;;;11.30;1.33;;;22.20;99.90;;;20.49;59.06;99679.88;5029712;28;20040;-77
2022/09/15 08:18:51;;;;;;;6.43;1.30;;;21.70;99.90;;;20.46;58.29;99683.72;5036200;28;20041;-77
2022/09/15 08:21:21;;;;;;;4.30;1.00;;;21.60;99.90;;;21.08;58.37;99685.28;5048780;28;20024;-78
2022/09/15 08:23:54;;;;;;;7.28;1.52;;;21.80;99.90;;;21.44;58.20;99691.19;5050793;28;20041;-77
2022/09/15 08:26:21;;;;;;;6.80;1.50;;;22.30;99.90;;;21.89;56.06;99676.41;5050710;28;20028;-77
2022/09/15 08:28:52;;;;;;;6.57;0.98;;;22.90;99.90;;;22.63;53.68;99678.88;5032398;28;20037;-77
2022/09/15 08:31:18;;;;;;;6.75;1.23;;;23.30;99.90;;;22.94;53.85;99692.31;5053995;28;20036;-76
2022/09/15 08:33:50;;;;;;;11.27;1.35;;;24.00;99.20;;;23.98;50.83;99694.56;5048586;28;20578;-77
2022/09/15 08:36:20;;;;;;;4.38;0.90;;;24.60;97.80;;;23.95;49.94;99689.56;5046737;28;20044;-77
2022/09/15 08:38:52;;;;;;;8.52;1.20;;;24.30;97.90;;;22.82;52.27;99688.34;5045622;28;20040;-76
2022/09/15 08:41:28;;;;;;;9.77;1.58;;;23.40;98.30;;;21.49;55.18;99680.00;5067440;28;20031;-77
2022/09/15 08:44:36;;;;;;;10.93;1.08;;;22.50;99.00;;;20.25;56.77;99669.91;5057971;28;20435;-77
2022/09/15 08:47:43;;;;;;;7.85;1.20;;;21.30;99.90;;;19.26;59.31;99684.38;5034949;28;20094;-77
2022/09/15 08:50:40;;;;;;;7.20;1.10;;;20.60;99.90;;;19.76;59.54;99686.50;5044004;28;20033;-76
2022/09/15 08:53:41;;;;;;;;;;;20.60;99.90;;;20.33;58.32;99698.53;5046659;28;20036;-76
2022/09/15 08:56:21;;;;;;;6.40;1.23;;;21.40;99.90;;;21.55;55.85;99694.53;5017521;28;20647;-77
2022/09/15 08:58:47;;;;;;;6.45;1.00;;;22.00;99.90;;;21.99;55.03;99694.16;5030247;28;20055;-77
2022/09/15 09:02:16;;;;;;;6.03;1.23;;;22.00;99.90;;;20.94;55.31;99681.38;5042238;28;20578;-76
2022/09/15 09:05:28;;;;;;;8.02;0.93;;;21.60;99.90;;;20.78;55.67;99692.91;5062162;28;20124;-76
2022/09/15 09:08:21;;;;;;;8.68;0.90;;;21.50;99.90;;;20.86;54.24;99678.69;5063594;28;20041;-76
2022/09/15 09:11:09;;;;;;;7.35;1.15;;;21.40;99.70;;;20.94;54.77;99686.75;5046941;28;20085;-77
2022/09/15 09:14:22;;;;;;;8.65;1.20;;;21.60;99.90;;;21.42;55.26;99689.69;5059633;28;20036;-77
2022/09/15 09:17:41;;;;;;;10.10;0.98;;;21.80;99.90;;;20.97;53.84;99690.91;5032240;28;20033;-76
2022/09/15 09:20:55;;;;;;;5.50;1.25;;;21.50;99.70;;;20.51;54.56;99683.22;5066200;28;20055;-76
2022/09/15 09:23:26;;;;;;;8.48;1.15;;;21.00;99.90;;;19.96;56.63;99681.78;5048847;28;20032;-77
2022/09/15 09:25:57;;;;;;;15.90;1.42;;;20.90;99.90;;;20.16;57.12;99681.56;5048038;28;20032;-76
2022/09/15 09:28:54;;;;;;;7.13;1.10;;;21.00;99.90;;;20.49;57.18;99682.53;5046252;28;20102;-76
2022/09/15 09:31:24;;;;;;;;;;;21.00;99.90;;;21.03;55.78;99690.25;5054255;28;20044;-76
2022/09/15 09:34:33;;;;;;;4.85;1.17;;;21.50;99.90;;;21.37;54.66;99692.81;5045644;28;20433;-76
2022/09/15 09:37:10;;;;;;;5.68;0.80;;;21.80;99.80;;;21.39;53.50;99690.00;5065207;28;20044;-76
2022/09/15 09:39:42;;;;;;;10.93;1.58;;;21.80;99.00;;;20.96;53.27;99697.28;5054537;28;20029;-76
2022/09/15 09:42:17;;;;;;;4.53;0.90;;;21.30;99.40;;;20.11;55.42;99679.38;5037220;28;20127;-76
2022/09/15 09:44:46;;;;;;;3.72;0.75;;;21.10;99.30;;;20.06;55.15;99682.53;5061900;28;20020;-76
2022/09/15 09:47:14;;;;;;;6.72;0.80;;;20.90;99.10;;;19.84;54.79;99675.84;5036564;28;20027;-76
2022/09/15 09:49:48;;;;;;;4.03;0.70;;;20.60;99.40;;;19.61;55.37;99688.00;5054900;28;20037;-76
2022/09/15 09:52:34;;;;;;;5.63;1.10;;;20.60;99.90;;;20.05;55.74;99691.53;5052539;28;20032;-76
2022/09/15 09:55:15;;;;;;;6.73;0.83;;;20.50;99.20;;;19.48;54.99;99685.72;5049108;28;20562;-75
2022/09/15 09:57:47;;;;;;;4.03;0.82;;;20.00;99.90;;;18.64;57.22;99692.22;5032569;28;20508;-77
2022/09/15 10:00:38;;;;;;;8.15;0.95;;;19.60;99.90;;;17.90;58.77;99679.72;5061149;28;20489;-76
2022/09/15 10:03:33;;;;;;;6.22;1.00;;;19.00;99.90;;;17.07;61.36;99692.66;5046096;28;20401;-76
2022/09/15 10:06:21;;;;;;;5.30;1.00;;;18.40;99.90;;;16.68;62.54;99687.22;5027965;28;20680;-77
2022/09/15 10:09:05;;;;;;;4.28;0.90;;;18.20;99.90;;;17.03;63.52;99700.06;5042080;28;20044;-77
2022/09/15 10:11:58;;;;;;;7.72;1.40;;;18.40;99.90;;;17.98;59.83;99701.16;5047629;28;20103;-77
2022/09/15 10:14:30;;;;;;;7.68;1.17;;;18.90;99.90;;;18.71;57.91;99703.13;5033270;28;20037;-76
2022/09/15 10:17:17;;;;;;;8.07;1.20;;;19.20;99.90;;;18.65;56.49;99697.38;5027971;28;20072;-76
2022/09/15 10:19:55;;;;;;;5.75;0.98;;;19.20;99.90;;;17.86;61.85;99699.63;5019522;28;20505;-76
2022/09/15 10:22:42;;;;;;;6.28;1.02;;;18.70;99.90;;;17.29;66.98;99721.63;5021844;28;20763;-77
2022/09/15 10:25:36;;;;;;;5.10;1.20;;;18.30;99.90;;;17.05;68.25;99723.88;5009533;28;20426;-76
2022/09/15 10:28:10;;;;;;;4.00;0.75;;;18.10;99.90;;;16.90;67.88;99710.94;5025141;28;20516;-77
2022/09/15 10:31:09;;;;;;;5.55;0.80;;;17.90;99.90;;;16.59;67.33;99700.34;5024995;28;20045;-75
2022/09/15 10:33:46;;;;;;;6.82;1.10;;;17.70;99.90;;;16.59;67.15;99702.19;5010071;28;20041;-77
2022/09/15 10:36:36;;;;;;;8.68;1.30;;;17.80;99.90;;;16.99;66.34;99712.78;5024809;28;21153;-77
2022/09/15 10:39:23;;;;;;;9.63;0.95;;;18.00;99.90;;;17.27;64.32;99707.63;5009921;28;20061;-77
2022/09/15 10:42:18;;;;;;;6.78;1.00;;;18.20;99.90;;;17.36;62.09;99704.13;5024590;28;20038;-77
2022/09/15 10:45:19;;;;;;;6.97;1.10;;;18.30;99.90;;;17.56;62.85;99715.63;5024595;28;20396;-76
2022/09/15 10:48:25;;;;;;;7.88;1.40;;;18.40;99.90;;;17.72;62.49;99707.06;5023989;28;20505;-77